createdAt,value
2019-05-25T00:04:44.551Z,23.10
2019-05-25T00:07:16.902Z,24.63
2019-05-25T00:09:49.080Z,24.37
2019-05-25T00:12:20.848Z,28.30
2019-05-25T00:14:53.886Z,22.50
2019-05-25T00:17:25.477Z,20.40
2019-05-25T00:19:58.935Z,20.85
2019-05-25T00:22:31.758Z,27.87
2019-05-25T00:25:03.571Z,28.27
2019-05-25T00:27:37.314Z,21.25
2019-05-25T00:30:09.811Z,29.32
2019-05-25T00:32:41.345Z,31.68
2019-05-25T00:35:13.612Z,28.92
2019-05-25T00:37:47.217Z,23.57
2019-05-25T00:40:18.765Z,29.45
2019-05-25T00:42:50.825Z,33.33
2019-05-25T00:45:23.704Z,28.35
2019-05-25T00:47:56.906Z,33.10
2019-05-25T00:50:28.356Z,30.90
2019-05-25T00:52:59.801Z,28.12
2019-05-25T00:55:31.862Z,30.82
2019-05-25T00:58:03.224Z,31.42
2019-05-25T01:00:35.068Z,31.07
2019-05-25T01:03:06.827Z,31.65
2019-05-25T01:05:38.487Z,31.33
2019-05-25T01:08:10.193Z,31.62
2019-05-25T01:10:41.793Z,34.95
2019-05-25T01:13:13.541Z,35.33
2019-05-25T01:15:45.400Z,34.78
2019-05-25T01:18:16.953Z,35.40
2019-05-25T01:20:49.124Z,40.55
2019-05-25T01:23:20.671Z,33.48
2019-05-25T01:25:52.379Z,36.28
2019-05-25T01:28:24.388Z,35.55
2019-05-25T01:30:55.611Z,34.95
2019-05-25T01:33:27.505Z,31.33
2019-05-25T01:36:00.069Z,35.90
2019-05-25T01:38:31.763Z,35.30
2019-05-25T01:41:05.411Z,35.58
2019-05-25T01:46:11.395Z,30.08
2019-05-25T01:48:43.870Z,30.90
2019-05-25T01:51:15.619Z,34.45
2019-05-25T01:53:47.281Z,31.15
2019-05-25T01:56:20.902Z,36.05
2019-05-25T01:58:53.690Z,32.88
2019-05-25T02:03:57.589Z,31.70
2019-05-25T02:06:29.750Z,29.92
2019-05-25T02:09:01.712Z,35.28
2019-05-25T02:11:34.487Z,33.05
2019-05-25T02:14:06.509Z,32.20
2019-05-25T02:16:38.312Z,31.97
2019-05-25T02:19:10.170Z,33.45
2019-05-25T02:21:42.242Z,33.00
2019-05-25T02:24:14.713Z,34.18
2019-05-25T02:26:48.642Z,34.38
2019-05-25T02:29:20.006Z,35.05
2019-05-25T02:31:52.972Z,35.10
2019-05-25T02:34:25.519Z,33.38
2019-05-25T02:36:57.232Z,34.88
2019-05-25T02:39:31.283Z,34.38
2019-05-25T02:42:02.938Z,37.73
2019-05-25T02:44:36.693Z,36.00
2019-05-25T02:47:08.343Z,36.70
2019-05-25T02:49:40.763Z,36.77
2019-05-25T02:52:13.687Z,36.10
2019-05-25T02:54:45.523Z,34.27
2019-05-25T02:57:18.193Z,39.38
2019-05-25T02:59:50.356Z,37.70
2019-05-25T03:02:25.693Z,35.65
2019-05-25T03:04:57.551Z,33.65
2019-05-25T03:07:30.424Z,30.72
2019-05-25T03:10:02.187Z,34.33
2019-05-25T03:12:33.918Z,36.25
2019-05-25T03:15:09.287Z,31.75
2019-05-25T03:17:41.862Z,35.13
2019-05-25T03:20:13.875Z,33.48
2019-05-25T03:22:46.196Z,28.80
2019-05-25T03:25:19.730Z,28.75
2019-05-25T03:27:50.941Z,30.88
2019-05-25T03:30:36.609Z,26.68
2019-05-25T03:33:07.723Z,24.60
2019-05-25T03:35:39.941Z,30.12
2019-05-25T03:38:14.249Z,25.37
2019-05-25T03:40:45.798Z,26.27
2019-05-25T03:43:18.169Z,25.45
2019-05-25T03:45:49.769Z,27.93
2019-05-25T03:48:24.854Z,25.27
2019-05-25T03:50:58.250Z,28.95
2019-05-25T03:53:33.079Z,28.80
2019-05-25T03:56:06.681Z,25.90
2019-05-25T03:58:38.239Z,24.63
2019-05-25T04:01:10.939Z,24.72
2019-05-25T04:03:45.032Z,26.75
2019-05-25T04:06:19.017Z,22.85
2019-05-25T04:08:51.506Z,22.37
2019-05-25T04:11:25.754Z,21.65
2019-05-25T04:13:57.265Z,25.52
2019-05-25T04:16:29.242Z,27.42
2019-05-25T04:19:02.012Z,25.57
2019-05-25T04:21:34.796Z,28.02
2019-05-25T04:24:06.663Z,24.77
2019-05-25T04:26:38.921Z,29.82
2019-05-25T04:29:12.516Z,29.00
2019-05-25T04:31:45.478Z,26.17
2019-05-25T04:34:18.800Z,27.10
2019-05-25T04:36:50.222Z,26.37
2019-05-25T04:39:21.946Z,25.20
2019-05-25T04:41:54.678Z,26.45
2019-05-25T04:44:26.028Z,24.95
2019-05-25T04:46:59.904Z,26.05
2019-05-25T04:49:31.590Z,27.00
2019-05-25T04:52:04.791Z,27.45
2019-05-25T04:54:36.459Z,32.38
2019-05-25T04:57:08.140Z,27.67
2019-05-25T04:59:41.665Z,31.33
2019-05-25T05:02:14.072Z,26.33
2019-05-25T05:04:47.768Z,27.10
2019-05-25T05:07:20.131Z,26.55
2019-05-25T05:10:02.218Z,28.87
2019-05-25T05:12:28.151Z,32.78
2019-05-25T05:14:59.594Z,28.52
2019-05-25T05:17:34.470Z,31.73
2019-05-25T05:20:09.354Z,33.07
2019-05-25T05:22:40.624Z,27.65
2019-05-25T05:25:15.260Z,29.67
2019-05-25T05:27:46.669Z,28.65
2019-05-25T05:30:21.660Z,32.33
2019-05-25T05:32:53.521Z,32.03
2019-05-25T05:35:26.961Z,32.63
2019-05-25T05:38:02.096Z,30.68
2019-05-25T05:40:36.631Z,33.50
2019-05-25T05:43:11.857Z,32.83
2019-05-25T05:45:48.964Z,30.43
2019-05-25T05:48:23.764Z,29.02
2019-05-25T05:50:59.514Z,29.02
2019-05-25T05:53:36.419Z,27.17
2019-05-25T05:56:09.583Z,31.10
2019-05-25T05:58:41.946Z,26.40
2019-05-25T06:01:14.323Z,28.32
2019-05-25T06:03:46.440Z,28.55
2019-05-25T06:06:19.236Z,27.42
2019-05-25T06:08:51.217Z,28.47
2019-05-25T06:11:23.294Z,25.08
2019-05-25T06:13:55.157Z,24.05
2019-05-25T06:16:28.946Z,27.48
2019-05-25T06:19:01.564Z,23.23
2019-05-25T06:21:34.976Z,22.45
2019-05-25T06:26:42.535Z,23.27
2019-05-25T06:29:14.392Z,25.08
2019-05-25T06:31:46.455Z,28.23
2019-05-25T06:34:19.032Z,25.32
2019-05-25T06:36:51.712Z,25.90
2019-05-25T06:39:24.555Z,53.92
2019-05-25T06:41:59.015Z,44.13
2019-05-25T06:44:32.618Z,49.77
2019-05-25T06:47:10.310Z,45.28
2019-05-25T06:49:43.189Z,53.87
2019-05-25T06:52:17.410Z,39.65
2019-05-25T06:54:49.610Z,37.63
2019-05-25T06:57:23.382Z,38.38
2019-05-25T06:59:55.134Z,41.20
2019-05-25T07:02:27.077Z,45.25
2019-05-25T07:05:00.490Z,32.60
2019-05-25T07:07:33.618Z,33.50
2019-05-25T07:10:09.387Z,37.30
2019-05-25T07:12:40.710Z,36.75
2019-05-25T07:15:14.573Z,37.85
2019-05-25T07:20:17.294Z,43.63
2019-05-25T07:22:50.269Z,42.98
2019-05-25T07:25:22.442Z,38.10
2019-05-25T07:27:59.889Z,43.48
2019-05-25T07:30:27.896Z,40.25
2019-05-25T07:33:01.042Z,38.08
2019-05-25T07:35:35.031Z,44.30
2019-05-25T07:38:08.191Z,45.55
2019-05-25T07:40:41.469Z,39.95
2019-05-25T07:43:12.925Z,44.25
2019-05-25T07:45:45.799Z,40.05
2019-05-25T07:48:19.123Z,33.38
2019-05-25T07:50:50.891Z,38.17
2019-05-25T07:53:25.773Z,40.73
2019-05-25T07:55:57.392Z,31.23
2019-05-25T07:58:29.736Z,50.83
2019-05-25T08:01:01.627Z,33.95
2019-05-25T08:03:34.535Z,37.38
2019-05-25T08:06:09.072Z,34.25
2019-05-25T08:08:43.075Z,33.20
2019-05-25T08:13:49.314Z,24.92
2019-05-25T08:16:21.220Z,22.50
2019-05-25T08:18:52.885Z,23.60
2019-05-25T08:21:24.540Z,21.57
2019-05-25T08:23:57.412Z,31.30
2019-05-25T08:26:32.534Z,24.90
2019-05-25T08:29:07.647Z,26.12
2019-05-25T08:31:41.435Z,28.25
2019-05-25T08:34:13.193Z,31.93
2019-05-25T08:36:47.041Z,31.85
2019-05-25T08:39:19.104Z,34.25
2019-05-25T08:41:50.676Z,30.80
2019-05-25T08:44:23.746Z,34.70
2019-05-25T08:46:55.751Z,30.50
2019-05-25T08:49:28.481Z,21.57
2019-05-25T08:51:59.835Z,20.88
2019-05-25T08:54:31.902Z,22.90
2019-05-25T08:57:03.543Z,23.95
2019-05-25T08:59:35.250Z,28.55
2019-05-25T09:02:07.061Z,27.15
2019-05-25T09:04:42.403Z,20.50
2019-05-25T09:07:14.418Z,23.42
2019-05-25T09:12:19.193Z,21.75
2019-05-25T09:14:50.820Z,18.55
2019-05-25T09:17:23.030Z,23.27
2019-05-25T09:19:56.003Z,21.37
2019-05-25T09:22:28.188Z,26.15
2019-05-25T09:25:00.366Z,25.77
2019-05-25T09:27:32.206Z,27.25
2019-05-25T09:30:05.123Z,24.60
2019-05-25T09:32:37.155Z,22.98
2019-05-25T09:35:13.554Z,19.67
2019-05-25T09:37:45.808Z,23.62
2019-05-25T09:40:17.216Z,19.23
2019-05-25T09:42:49.416Z,24.70
2019-05-25T09:45:21.114Z,19.52
2019-05-25T09:47:55.259Z,27.05
2019-05-25T09:50:27.957Z,16.37
2019-05-25T09:52:59.767Z,35.70
2019-05-25T09:55:33.919Z,22.07
2019-05-25T09:58:05.885Z,22.13
2019-05-25T10:00:40.281Z,18.55
2019-05-25T10:03:11.066Z,23.70
2019-05-25T10:05:46.681Z,30.40
2019-05-25T10:08:19.780Z,35.17
2019-05-25T10:10:53.877Z,33.65
2019-05-25T10:13:26.394Z,31.27
2019-05-25T10:15:59.026Z,20.72
2019-05-25T10:18:30.385Z,28.98
2019-05-25T10:23:36.355Z,29.12
2019-05-25T10:26:07.924Z,24.18
2019-05-25T10:28:41.947Z,19.82
2019-05-25T10:31:15.329Z,19.40
2019-05-25T10:33:48.389Z,16.02
2019-05-25T10:36:20.989Z,18.05
2019-05-25T10:38:54.873Z,22.80
2019-05-25T10:41:28.025Z,28.60
2019-05-25T10:43:59.615Z,46.37
2019-05-25T10:46:33.113Z,28.77
2019-05-25T10:49:05.278Z,29.45
2019-05-25T10:51:36.943Z,20.35
2019-05-25T10:54:08.687Z,22.32
2019-05-25T10:56:40.884Z,17.77
2019-05-25T10:59:12.150Z,19.23
2019-05-25T11:01:44.585Z,11.85
2019-05-25T11:04:18.635Z,14.90
2019-05-25T11:06:51.492Z,11.53
2019-05-25T11:09:25.588Z,11.85
2019-05-25T11:11:59.181Z,14.07
2019-05-25T11:14:30.943Z,13.38
2019-05-25T11:17:02.599Z,13.78
2019-05-25T11:19:35.786Z,19.25
2019-05-25T11:24:50.762Z,14.40
2019-05-25T11:27:23.026Z,15.55
2019-05-25T11:30:08.059Z,17.35
2019-05-25T11:32:30.026Z,20.37
2019-05-25T11:35:01.918Z,15.10
2019-05-25T11:37:36.400Z,17.23
2019-05-25T11:40:09.368Z,16.40
2019-05-25T11:42:42.736Z,12.30
2019-05-25T11:45:14.827Z,18.45
2019-05-25T11:47:46.095Z,12.80
2019-05-25T11:50:18.351Z,12.25
2019-05-25T11:52:50.239Z,10.90
2019-05-25T11:55:22.178Z,13.70
2019-05-25T11:57:56.092Z,14.55
2019-05-25T12:00:28.205Z,14.83
2019-05-25T12:02:59.571Z,20.95
2019-05-25T12:05:33.402Z,17.80
2019-05-25T12:08:05.139Z,19.57
2019-05-25T12:10:37.526Z,29.15
2019-05-25T12:13:11.232Z,31.17
2019-05-25T12:15:44.426Z,21.30
2019-05-25T12:18:16.282Z,21.45
2019-05-25T12:20:48.245Z,22.02
2019-05-25T12:23:21.224Z,28.05
2019-05-25T12:25:53.807Z,23.32
2019-05-25T12:28:26.785Z,20.30
2019-05-25T12:31:00.305Z,26.42
2019-05-25T12:33:33.041Z,24.15
2019-05-25T12:36:07.665Z,16.67
2019-05-25T12:38:40.521Z,16.90
2019-05-25T12:41:12.229Z,16.17
2019-05-25T12:43:44.494Z,17.05
2019-05-25T12:46:15.989Z,15.13
2019-05-25T12:48:48.525Z,15.10
2019-05-25T12:51:20.585Z,18.17
2019-05-25T12:53:52.343Z,14.93
2019-05-25T12:56:26.162Z,11.53
2019-05-25T12:58:59.736Z,9.93
2019-05-25T13:01:32.319Z,11.35
2019-05-25T13:04:03.571Z,10.23
2019-05-25T13:06:38.743Z,7.80
2019-05-25T13:09:10.763Z,10.23
2019-05-25T13:11:45.393Z,7.47
2019-05-25T13:14:17.990Z,21.82
2019-05-25T13:16:50.539Z,7.22
2019-05-25T13:19:22.805Z,8.23
2019-05-25T13:21:55.339Z,14.65
2019-05-25T13:24:28.397Z,13.18
2019-05-25T13:26:59.516Z,9.73
2019-05-25T13:29:32.496Z,6.55
2019-05-25T13:32:05.808Z,10.25
2019-05-25T13:34:37.803Z,9.58
2019-05-25T13:37:09.963Z,6.87
2019-05-25T13:39:42.094Z,5.45
2019-05-25T13:42:13.187Z,11.85
2019-05-25T13:44:44.778Z,7.42
2019-05-25T13:47:16.330Z,6.28
2019-05-25T13:49:49.313Z,6.85
2019-05-25T13:52:20.889Z,3.70
2019-05-25T13:54:52.954Z,10.08
2019-05-25T13:57:24.602Z,18.87
2019-05-25T13:59:56.042Z,10.93
2019-05-25T14:02:27.888Z,5.92
2019-05-25T14:05:01.901Z,6.17
2019-05-25T14:07:36.219Z,8.35
2019-05-25T14:10:11.865Z,8.23
2019-05-25T14:12:44.141Z,7.87
2019-05-25T14:15:16.122Z,6.42
2019-05-25T14:17:48.616Z,12.45
2019-05-25T14:20:20.226Z,3.90
2019-05-25T14:22:51.687Z,8.40
2019-05-25T14:25:23.142Z,6.33
2019-05-25T14:27:56.629Z,6.97
2019-05-25T14:30:30.226Z,18.32
2019-05-25T14:33:04.435Z,8.25
2019-05-25T14:35:38.271Z,7.60
2019-05-25T14:38:09.686Z,8.30
2019-05-25T14:40:42.876Z,9.60
2019-05-25T14:43:15.470Z,11.25
2019-05-25T14:45:47.117Z,7.83
2019-05-25T14:48:21.123Z,16.52
2019-05-25T14:50:52.624Z,10.95
2019-05-25T14:53:26.046Z,26.27
2019-05-25T14:56:00.379Z,10.78
2019-05-25T14:58:31.831Z,15.00
2019-05-25T15:01:06.169Z,11.80
2019-05-25T15:03:37.392Z,8.80
2019-05-25T15:06:09.730Z,15.13
2019-05-25T15:08:41.736Z,5.93
2019-05-25T15:11:14.400Z,9.88
2019-05-25T15:13:46.303Z,15.85
2019-05-25T15:16:21.190Z,21.37
2019-05-25T15:18:52.588Z,14.15
2019-05-25T15:21:25.940Z,12.87
2019-05-25T15:23:58.408Z,13.05
2019-05-25T15:26:31.906Z,11.65
2019-05-25T15:29:03.658Z,14.28
2019-05-25T15:31:36.545Z,10.72
2019-05-25T15:34:08.706Z,14.00
2019-05-25T15:36:42.000Z,9.43
2019-05-25T15:39:13.736Z,7.25
2019-05-25T15:41:48.792Z,13.35
2019-05-25T15:44:20.446Z,11.68
2019-05-25T15:46:54.797Z,11.10
2019-05-25T15:49:33.454Z,11.65
2019-05-25T15:52:03.600Z,8.83
2019-05-25T15:54:37.728Z,19.02
2019-05-25T15:57:12.749Z,9.68
2019-05-25T15:59:44.214Z,8.98
2019-05-25T16:02:15.625Z,7.37
2019-05-25T16:04:47.197Z,11.10
2019-05-25T16:07:20.909Z,13.08
2019-05-25T16:12:24.316Z,18.20
2019-05-25T16:14:57.593Z,24.40
2019-05-25T16:17:31.207Z,12.00
2019-05-25T16:20:03.371Z,15.68
2019-05-25T16:22:40.156Z,25.48
2019-05-25T16:25:12.513Z,19.12
2019-05-25T16:27:45.607Z,13.25
2019-05-25T16:30:17.831Z,11.75
2019-05-25T16:35:27.964Z,10.98
2019-05-25T16:38:02.150Z,7.58
2019-05-25T16:40:35.956Z,13.83
2019-05-25T16:43:09.686Z,9.80
2019-05-25T16:45:41.184Z,6.62
2019-05-25T16:48:13.796Z,10.70
2019-05-25T16:50:46.108Z,12.53
2019-05-25T16:53:19.861Z,8.05
2019-05-25T16:55:54.586Z,12.80
2019-05-25T16:58:27.779Z,18.75
2019-05-25T17:01:00.165Z,9.43
2019-05-25T17:03:31.426Z,9.28
2019-05-25T17:06:04.775Z,9.20
2019-05-25T17:08:39.307Z,8.93
2019-05-25T17:11:12.426Z,12.43
2019-05-25T17:13:46.413Z,11.30
2019-05-25T17:18:52.636Z,7.90
2019-05-25T17:21:24.343Z,7.37
2019-05-25T17:23:56.809Z,11.85
2019-05-25T17:26:31.023Z,17.15
2019-05-25T17:29:05.137Z,10.85
2019-05-25T17:31:40.378Z,11.05
2019-05-25T17:34:11.925Z,9.78
2019-05-25T17:36:43.581Z,9.53
2019-05-25T17:39:14.824Z,13.78
2019-05-25T17:41:48.836Z,21.85
2019-05-25T17:44:21.207Z,14.13
2019-05-25T17:46:54.095Z,12.70
2019-05-25T17:49:27.584Z,18.60
2019-05-25T17:51:59.035Z,12.03
2019-05-25T17:54:31.610Z,11.75
2019-05-25T17:57:03.926Z,13.65
2019-05-25T17:59:36.760Z,18.65
2019-05-25T18:02:09.700Z,26.47
2019-05-25T18:04:42.425Z,17.82
2019-05-25T18:07:14.076Z,13.45
2019-05-25T18:09:45.793Z,13.10
2019-05-25T18:12:20.457Z,28.42
2019-05-25T18:14:53.037Z,17.00
2019-05-25T18:17:24.895Z,15.15
2019-05-25T18:19:56.858Z,14.28
2019-05-25T18:25:07.349Z,16.70
2019-05-25T18:27:38.722Z,15.35
2019-05-25T18:30:12.678Z,21.62
2019-05-25T18:32:45.259Z,16.82
2019-05-25T18:35:17.190Z,19.27
2019-05-25T18:37:51.117Z,16.73
2019-05-25T18:40:23.049Z,22.05
2019-05-25T18:42:54.646Z,26.37
2019-05-25T18:45:31.727Z,15.58
2019-05-25T18:48:04.813Z,16.35
2019-05-25T18:50:36.462Z,15.53
2019-05-25T18:53:11.452Z,18.87
2019-05-25T18:55:44.073Z,25.37
2019-05-25T18:58:17.844Z,22.25
2019-05-25T19:00:51.277Z,34.48
2019-05-25T19:03:24.841Z,20.52
2019-05-25T19:05:56.369Z,22.30
2019-05-25T19:08:27.854Z,19.35
2019-05-25T19:11:02.193Z,29.32
2019-05-25T19:13:36.912Z,25.50
2019-05-25T19:16:08.660Z,20.20
2019-05-25T19:18:42.576Z,18.60
2019-05-25T19:21:15.045Z,22.45
2019-05-25T19:23:50.699Z,24.50
2019-05-25T19:28:58.514Z,22.00
2019-05-25T19:31:30.046Z,22.40
2019-05-25T19:34:02.854Z,21.70
2019-05-25T19:36:35.424Z,21.33
2019-05-25T19:39:08.718Z,21.30
2019-05-25T19:41:40.431Z,24.43
2019-05-25T19:44:12.131Z,23.42
2019-05-25T19:46:46.411Z,22.98
2019-05-25T19:49:18.394Z,24.60
2019-05-25T19:51:50.899Z,23.27
2019-05-25T19:54:24.791Z,27.62
2019-05-25T19:56:56.422Z,26.62
2019-05-25T19:59:28.141Z,25.60
2019-05-25T20:02:01.496Z,27.75
2019-05-25T20:04:33.131Z,29.72
2019-05-25T20:07:06.267Z,32.00
2019-05-25T20:09:41.468Z,33.78
2019-05-25T20:12:13.024Z,39.20
2019-05-25T20:14:47.028Z,40.50
2019-05-25T20:17:20.528Z,36.98
2019-05-25T20:19:52.692Z,35.38
2019-05-25T20:22:24.569Z,33.30
2019-05-25T20:24:58.157Z,36.30
2019-05-25T20:27:33.600Z,35.92
2019-05-25T20:30:09.488Z,34.65
2019-05-25T20:32:41.211Z,32.90
2019-05-25T20:35:14.040Z,39.20
2019-05-25T20:37:45.577Z,40.30
2019-05-25T20:40:18.522Z,35.40
2019-05-25T20:42:51.301Z,38.85
2019-05-25T20:45:24.551Z,32.03
2019-05-25T20:47:56.132Z,32.05
2019-05-25T20:50:29.337Z,32.17
2019-05-25T20:53:03.654Z,39.00
2019-05-25T20:55:36.169Z,33.00
2019-05-25T20:58:09.439Z,33.85
2019-05-25T21:00:42.766Z,32.15
2019-05-25T21:03:14.878Z,39.92
2019-05-25T21:05:50.609Z,37.98
2019-05-25T21:08:21.973Z,35.52
2019-05-25T21:13:27.227Z,40.35
2019-05-25T21:15:59.085Z,37.30
2019-05-25T21:18:30.741Z,36.20
2019-05-25T21:21:02.209Z,40.65
2019-05-25T21:23:35.714Z,32.78
2019-05-25T21:26:08.469Z,39.85
2019-05-25T21:28:40.027Z,36.77
2019-05-25T21:31:13.932Z,43.50
2019-05-25T21:33:46.501Z,48.68
2019-05-25T21:36:17.784Z,41.23
2019-05-25T21:38:50.731Z,41.27
2019-05-25T21:41:23.819Z,47.30
2019-05-25T21:43:55.883Z,47.15
2019-05-25T21:46:27.537Z,39.60
2019-05-25T21:49:00.422Z,42.70
2019-05-25T21:51:34.429Z,41.95
2019-05-25T21:54:07.825Z,45.88
2019-05-25T21:56:43.288Z,46.77
2019-05-25T21:59:16.764Z,39.70
2019-05-25T22:01:48.368Z,41.20
2019-05-25T22:04:20.584Z,42.03
2019-05-25T22:06:52.559Z,45.83
2019-05-25T22:09:26.659Z,42.33
2019-05-25T22:11:59.075Z,51.05
2019-05-25T22:14:31.091Z,51.50
2019-05-25T22:17:04.537Z,52.00
2019-05-25T22:19:37.470Z,45.17
2019-05-25T22:22:10.679Z,50.03
2019-05-25T22:24:44.960Z,48.42
2019-05-25T22:27:20.219Z,50.75
2019-05-25T22:29:53.404Z,45.15
2019-05-25T22:32:26.081Z,53.92
2019-05-25T22:34:59.800Z,49.50
2019-05-25T22:37:32.263Z,55.23
2019-05-25T22:40:08.217Z,48.98
2019-05-25T22:42:40.368Z,61.60
2019-05-25T22:45:12.344Z,55.20
2019-05-25T22:47:43.717Z,58.28
2019-05-25T22:50:18.207Z,60.30
2019-05-25T22:52:50.672Z,55.15
2019-05-25T22:55:25.677Z,54.20
2019-05-25T23:00:32.196Z,68.90
2019-05-25T23:03:06.547Z,63.33
2019-05-25T23:05:39.306Z,59.73
2019-05-25T23:08:13.505Z,62.20
2019-05-25T23:10:45.982Z,63.65
2019-05-25T23:13:18.442Z,64.82
2019-05-25T23:15:50.216Z,71.62
2019-05-25T23:18:23.266Z,63.30
2019-05-25T23:23:28.047Z,68.75
2019-05-25T23:26:00.444Z,67.03
2019-05-25T23:28:32.492Z,69.55
2019-05-25T23:31:05.158Z,69.35
2019-05-25T23:33:37.222Z,68.72
2019-05-25T23:36:08.494Z,66.22
2019-05-25T23:38:42.358Z,65.78
2019-05-25T23:41:14.023Z,69.20
2019-05-25T23:43:45.786Z,65.45
2019-05-25T23:46:18.249Z,63.05
2019-05-25T23:48:51.989Z,61.28
2019-05-25T23:51:23.504Z,64.85
2019-05-25T23:53:56.809Z,70.35
2019-05-25T23:56:28.566Z,68.50
2019-05-25T23:59:00.055Z,71.60
